createdAt,value
2018-06-13T00:04:17.606Z,100739.00
2018-06-13T00:09:21.713Z,100749.00
2018-06-13T00:14:25.742Z,100747.00
2018-06-13T00:19:29.577Z,100751.00
2018-06-13T00:24:33.377Z,100752.00
2018-06-13T00:29:37.212Z,100749.00
2018-06-13T00:34:41.013Z,100748.00
2018-06-13T00:39:44.818Z,100759.00
2018-06-13T00:44:48.850Z,100761.00
2018-06-13T00:49:52.705Z,100763.00
2018-06-13T00:54:56.508Z,100767.00
2018-06-13T01:00:00.561Z,100769.00
2018-06-13T01:05:04.366Z,100772.00
2018-06-13T01:10:08.168Z,100772.00
2018-06-13T01:15:11.982Z,100776.00
2018-06-13T01:20:16.625Z,100778.00
2018-06-13T01:25:20.691Z,100779.00
2018-06-13T01:30:24.754Z,100787.00
2018-06-13T01:35:28.545Z,100779.00
2018-06-13T01:40:32.324Z,100781.00
2018-06-13T01:45:36.358Z,100778.00
2018-06-13T01:50:53.398Z,100782.00
2018-06-13T01:55:57.495Z,100784.00
2018-06-13T02:01:01.277Z,100784.00
2018-06-13T02:06:05.079Z,100786.00
2018-06-13T02:11:09.171Z,100797.00
2018-06-13T02:16:12.978Z,100784.00
2018-06-13T02:21:17.014Z,100790.00
2018-06-13T02:26:20.806Z,100784.00
2018-06-13T02:31:24.602Z,100789.00
2018-06-13T02:36:28.411Z,100788.00
2018-06-13T02:41:32.221Z,100782.00
2018-06-13T02:46:35.997Z,100784.00
2018-06-13T02:51:39.801Z,100783.00
2018-06-13T02:56:43.597Z,100784.00
2018-06-13T03:01:47.392Z,100788.00
2018-06-13T03:06:51.182Z,100793.00
2018-06-13T03:11:55.237Z,100793.00
2018-06-13T03:16:59.289Z,100790.00
2018-06-13T03:22:03.538Z,100791.00
2018-06-13T03:27:07.304Z,100787.00
2018-06-13T03:32:11.090Z,100792.00
2018-06-13T03:37:14.861Z,100795.00
2018-06-13T03:42:18.645Z,100801.00
2018-06-13T03:47:22.672Z,100808.00
2018-06-13T03:52:26.686Z,100794.00
2018-06-13T03:57:30.464Z,100791.00
2018-06-13T04:02:34.241Z,100794.00
2018-06-13T04:07:38.012Z,100800.00
2018-06-13T04:12:42.067Z,100808.00
2018-06-13T04:17:45.800Z,100801.00
2018-06-13T04:22:49.570Z,100808.00
2018-06-13T04:27:53.332Z,100806.00
2018-06-13T04:32:57.346Z,100801.00
2018-06-13T04:38:01.357Z,100801.00
2018-06-13T04:43:05.548Z,100802.00
2018-06-13T04:48:09.348Z,100802.00
2018-06-13T04:53:13.253Z,100800.00
2018-06-13T04:58:17.056Z,100805.00
2018-06-13T05:03:20.816Z,100817.00
2018-06-13T05:08:24.593Z,100823.00
2018-06-13T05:13:28.440Z,100817.00
2018-06-13T05:18:32.826Z,100815.00
2018-06-13T05:23:37.805Z,100818.00
2018-06-13T05:28:41.967Z,100824.00
2018-06-13T05:33:45.937Z,100825.00
2018-06-13T05:38:52.757Z,100831.00
2018-06-13T05:43:56.948Z,100833.00
2018-06-13T05:49:00.724Z,100837.00
2018-06-13T05:54:04.529Z,100837.00
2018-06-13T05:59:08.320Z,100842.00
2018-06-13T06:04:12.147Z,100844.00
2018-06-13T06:09:16.167Z,100849.00
2018-06-13T06:14:19.964Z,100853.00
2018-06-13T06:19:23.767Z,100853.00
2018-06-13T06:24:27.555Z,100862.00
2018-06-13T06:29:31.336Z,100861.00
2018-06-13T06:34:35.413Z,100874.00
2018-06-13T06:39:39.185Z,100877.00
2018-06-13T06:44:42.961Z,100878.00
2018-06-13T06:49:46.733Z,100874.00
2018-06-13T06:54:50.735Z,100875.00
2018-06-13T06:59:54.504Z,100866.00
2018-06-13T07:04:58.511Z,100866.00
2018-06-13T07:10:02.302Z,100869.00
2018-06-13T07:15:06.313Z,100870.00
2018-06-13T07:20:10.116Z,100864.00
2018-06-13T07:25:13.879Z,100876.00
2018-06-13T07:30:17.740Z,100875.00
2018-06-13T07:35:21.519Z,100874.00
2018-06-13T07:40:25.590Z,100875.00
2018-06-13T07:45:29.375Z,100873.00
2018-06-13T07:50:33.145Z,100882.00
2018-06-13T07:55:37.148Z,100895.00
2018-06-13T08:00:40.917Z,100892.00
2018-06-13T08:05:44.720Z,100892.00
2018-06-13T08:10:48.759Z,100887.00
2018-06-13T08:15:52.554Z,100895.00
2018-06-13T08:20:56.316Z,100900.00
2018-06-13T08:26:00.144Z,100906.00
2018-06-13T08:31:04.112Z,100906.00
2018-06-13T08:36:08.244Z,100909.00
2018-06-13T08:41:12.264Z,100910.00
2018-06-13T08:46:16.277Z,100912.00
2018-06-13T08:51:20.040Z,100904.00
2018-06-13T08:56:23.806Z,100914.00
2018-06-13T09:01:27.806Z,100915.00
2018-06-13T09:06:31.567Z,100917.00
2018-06-13T09:11:36.279Z,100915.00
2018-06-13T09:16:40.055Z,100924.00
2018-06-13T09:21:43.845Z,100923.00
2018-06-13T09:26:47.851Z,100933.00
2018-06-13T09:31:51.616Z,100942.00
2018-06-13T09:36:55.617Z,100943.00
2018-06-13T09:42:01.818Z,100942.00
2018-06-13T09:47:06.897Z,100943.00
2018-06-13T09:52:09.586Z,100944.00
2018-06-13T09:57:13.521Z,100949.00
2018-06-13T10:02:17.374Z,100944.00
2018-06-13T10:07:21.070Z,100942.00
2018-06-13T10:12:24.839Z,100943.00
2018-06-13T10:17:28.608Z,100947.00
2018-06-13T10:22:32.392Z,100945.00
2018-06-13T10:27:40.623Z,100948.00
2018-06-13T10:32:44.612Z,100948.00
2018-06-13T10:37:48.729Z,100953.00
2018-06-13T10:42:52.511Z,100961.00
2018-06-13T10:47:56.299Z,100961.00
2018-06-13T10:53:00.078Z,100955.00
2018-06-13T10:58:03.883Z,100961.00
2018-06-13T11:03:07.885Z,100961.00
2018-06-13T11:08:11.727Z,100968.00
2018-06-13T11:13:15.505Z,100959.00
2018-06-13T11:18:19.277Z,100959.00
2018-06-13T11:23:23.099Z,100968.00
2018-06-13T11:28:27.084Z,100968.00
2018-06-13T11:33:31.093Z,100973.00
2018-06-13T11:38:34.868Z,100972.00
2018-06-13T11:43:38.904Z,100975.00
2018-06-13T11:48:42.672Z,100975.00
2018-06-13T11:53:46.655Z,100969.00
2018-06-13T11:58:50.444Z,100972.00
2018-06-13T12:03:54.429Z,100971.00
2018-06-13T12:08:58.437Z,100974.00
2018-06-13T12:14:02.228Z,100969.00
2018-06-13T12:19:06.028Z,100970.00
2018-06-13T12:24:09.795Z,100979.00
2018-06-13T12:29:13.813Z,100989.00
2018-06-13T12:34:17.693Z,100992.00
2018-06-13T12:39:21.737Z,100997.00
2018-06-13T12:44:25.512Z,100992.00
2018-06-13T12:49:29.276Z,100992.00
2018-06-13T12:54:33.272Z,100992.00
2018-06-13T12:59:37.298Z,100996.00
2018-06-13T13:04:41.374Z,100996.00
2018-06-13T13:09:45.094Z,100999.00
2018-06-13T13:14:49.150Z,100998.00
2018-06-13T13:19:52.931Z,100998.00
2018-06-13T13:24:56.908Z,100994.00
2018-06-13T13:30:00.930Z,100990.00
2018-06-13T13:35:04.941Z,100992.00
2018-06-13T13:40:08.701Z,100987.00
2018-06-13T13:45:12.497Z,100989.00
2018-06-13T13:50:17.057Z,100985.00
2018-06-13T13:55:20.832Z,100987.00
2018-06-13T14:00:24.809Z,100986.00
2018-06-13T14:05:28.912Z,100990.00
2018-06-13T14:10:32.912Z,100983.00
2018-06-13T14:15:36.699Z,100989.00
2018-06-13T14:20:40.476Z,100971.00
2018-06-13T14:25:44.269Z,100953.00
2018-06-13T14:30:48.274Z,100962.00
2018-06-13T14:35:52.160Z,100964.00
2018-06-13T14:40:55.937Z,100963.00
2018-06-13T14:45:59.721Z,100959.00
2018-06-13T14:51:03.489Z,100956.00
2018-06-13T14:56:13.233Z,100950.00
2018-06-13T15:01:17.027Z,100950.00
2018-06-13T15:06:21.239Z,100944.00
2018-06-13T15:11:25.026Z,100943.00
2018-06-13T15:16:28.817Z,100941.00
2018-06-13T15:21:32.602Z,100945.00
2018-06-13T15:26:36.820Z,100947.00
2018-06-13T15:31:40.833Z,100948.00
2018-06-13T15:36:44.614Z,100954.00
2018-06-13T15:41:48.372Z,100954.00
2018-06-13T15:46:52.161Z,100956.00
2018-06-13T15:51:56.165Z,100945.00
2018-06-13T15:56:59.958Z,100949.00
2018-06-13T16:02:03.728Z,100947.00
2018-06-13T16:07:07.493Z,100945.00
2018-06-13T16:12:11.278Z,100947.00
2018-06-13T16:17:15.060Z,100953.00
2018-06-13T16:22:18.848Z,100952.00
2018-06-13T16:27:22.626Z,100955.00
2018-06-13T16:32:26.424Z,100957.00
2018-06-13T16:37:30.295Z,100964.00
2018-06-13T16:42:34.071Z,100970.00
2018-06-13T16:47:37.877Z,100967.00
2018-06-13T16:52:59.071Z,100968.00
2018-06-13T16:58:02.853Z,100975.00
2018-06-13T17:03:06.702Z,100968.00
2018-06-13T17:08:10.530Z,100972.00
2018-06-13T17:13:14.345Z,100977.00
2018-06-13T17:18:18.170Z,100974.00
2018-06-13T17:23:22.032Z,100978.00
2018-06-13T17:28:25.855Z,100984.00
2018-06-13T17:33:30.103Z,100993.00
2018-06-13T17:38:33.905Z,100991.00
2018-06-13T17:43:37.732Z,101000.00
2018-06-13T17:48:41.569Z,101009.00
2018-06-13T17:53:45.403Z,101017.00
2018-06-13T17:58:49.222Z,101014.00
2018-06-13T18:03:53.085Z,101022.00
2018-06-13T18:08:56.857Z,101025.00
2018-06-13T18:14:00.660Z,101037.00
2018-06-13T18:19:04.569Z,101043.00
2018-06-13T18:24:08.614Z,101039.00
2018-06-13T18:29:12.494Z,101032.00
2018-06-13T18:34:16.927Z,101032.00
2018-06-13T18:39:20.729Z,101031.00
2018-06-13T18:44:24.560Z,101035.00
2018-06-13T18:49:28.413Z,101033.00
2018-06-13T18:54:32.242Z,101041.00
2018-06-13T18:59:36.052Z,101042.00
2018-06-13T19:04:39.883Z,101032.00
2018-06-13T19:09:43.705Z,101033.00
2018-06-13T19:14:47.517Z,101038.00
2018-06-13T19:19:51.765Z,101031.00
2018-06-13T19:24:55.832Z,101032.00
2018-06-13T19:29:59.945Z,101041.00
2018-06-13T19:35:03.786Z,101047.00
2018-06-13T19:40:07.609Z,101053.00
2018-06-13T19:45:11.440Z,101056.00
2018-06-13T19:50:15.464Z,101060.00
2018-06-13T19:55:24.838Z,101057.00
2018-06-13T20:00:28.652Z,101059.00
2018-06-13T20:05:38.274Z,101067.00
2018-06-13T20:10:43.284Z,101069.00
2018-06-13T20:15:53.106Z,101074.00
2018-06-13T20:20:56.904Z,101066.00
2018-06-13T20:26:06.439Z,101062.00
2018-06-13T20:31:14.410Z,101065.00
2018-06-13T20:36:18.169Z,101075.00
2018-06-13T20:41:21.984Z,101077.00
2018-06-13T20:46:26.038Z,101088.00
2018-06-13T20:51:30.184Z,101094.00
2018-06-13T20:56:33.986Z,101091.00
2018-06-13T21:01:38.043Z,101106.00
2018-06-13T21:06:42.475Z,101097.00
2018-06-13T21:11:46.299Z,101098.00
2018-06-13T21:16:50.120Z,101090.00
2018-06-13T21:21:53.951Z,101096.00
2018-06-13T21:26:57.848Z,101106.00
2018-06-13T21:32:01.860Z,101105.00
2018-06-13T21:37:05.692Z,101105.00
2018-06-13T21:42:09.706Z,101107.00
2018-06-13T21:47:14.323Z,101103.00
2018-06-13T21:52:18.233Z,101097.00
2018-06-13T21:57:22.284Z,101094.00
2018-06-13T22:02:26.344Z,101097.00
2018-06-13T22:07:30.168Z,101098.00
2018-06-13T22:12:34.219Z,101099.00
2018-06-13T22:17:38.024Z,101098.00
2018-06-13T22:23:45.306Z,101090.00
2018-06-13T22:28:49.373Z,101076.00
2018-06-13T22:33:53.180Z,101079.00
2018-06-13T22:38:56.984Z,101088.00
2018-06-13T22:44:00.793Z,101083.00
2018-06-13T22:49:04.845Z,101082.00
2018-06-13T22:54:08.640Z,101085.00
2018-06-13T22:59:12.701Z,101074.00
2018-06-13T23:04:16.548Z,101082.00
2018-06-13T23:09:20.537Z,101092.00
2018-06-13T23:14:24.341Z,101090.00
2018-06-13T23:19:28.211Z,101088.00
2018-06-13T23:24:31.990Z,101088.00
2018-06-13T23:29:36.000Z,101091.00
2018-06-13T23:34:39.776Z,101083.00
2018-06-13T23:39:43.552Z,101089.00
2018-06-13T23:44:47.327Z,101096.00
2018-06-13T23:49:51.145Z,101096.00
2018-06-13T23:54:55.189Z,101097.00
2018-06-13T23:59:58.970Z,101090.00
